History Data

Date (GMT-7:00) CPM ACPM uSv/h Latitude Longitude Altitude CO CO2 TVOC HCHO Air Pressure Temperature Humidity Type
2025-12-15 20:15:22 20 18.10 0.100000 41.649648 41.62752893 0 0 0 0 0 0 0 0 STD5.60
2025-12-15 20:10:19 16 17.40 0.080000 41.649648 41.62752893 0 0 0 0 0 0 0 0 STD5.60
2025-12-15 20:05:17 24 17.10 0.120000 41.649648 41.62752893 0 0 0 0 0 0 0 0 STD5.60
2025-12-15 20:00:15 15 16.90 0.075000 41.649648 41.62752893 0 0 0 0 0 0 0 0 STD5.60
2025-12-15 19:55:12 21 16.80 0.105000 41.649648 41.62752893 0 0 0 0 0 0 0 0 STD5.60
2025-12-15 19:50:12 18 16.70 0.090000 41.649648 41.62752893 0 0 0 0 0 0 0 0 STD5.60
2025-12-15 19:45:08 18 18.40 0.090000 41.649648 41.62752893 0 0 0 0 0 0 0 0 STD5.60
2025-12-15 19:40:06 26 19.10 0.130000 41.649648 41.62752893 0 0 0 0 0 0 0 0 STD5.60
2025-12-15 19:35:05 20 18.40 0.100000 41.649648 41.62752893 0 0 0 0 0 0 0 0 STD5.60
2025-12-15 19:30:03 14 16.60 0.070000 41.649648 41.62752893 0 0 0 0 0 0 0 0 STD5.60
2025-12-15 19:24:58 11 16.80 0.055000 41.649648 41.62752893 0 0 0 0 0 0 0 0 STD5.60
2025-12-15 19:19:56 22 18.40 0.110000 41.649648 41.62752893 0 0 0 0 0 0 0 0 STD5.60
2025-12-15 19:14:54 19 18.00 0.095000 41.649648 41.62752893 0 0 0 0 0 0 0 0 STD5.60
2025-12-15 19:09:51 19 19.20 0.095000 41.649648 41.62752893 0 0 0 0 0 0 0 0 STD5.60
2025-12-15 19:04:49 21 19.30 0.105000 41.649648 41.62752893 0 0 0 0 0 0 0 0 STD5.60
2025-12-15 18:59:47 23 18.60 0.115000 41.649648 41.62752893 0 0 0 0 0 0 0 0 STD5.60
2025-12-15 18:54:45 16 17.60 0.080000 41.649648 41.62752893 0 0 0 0 0 0 0 0 STD5.60
2025-12-15 18:49:48 13 18.10 0.065000 41.649648 41.62752893 0 0 0 0 0 0 0 0 STD5.60
2025-12-15 08:24:52 17 19.10 0.085000 41.649648 41.62752893 0 0 0 0 0 0 0 0 STD5.60
2025-12-15 08:19:48 22 17.90 0.110000 41.649648 41.62752893 0 0 0 0 0 0 0 0 STD5.60
2025-12-15 08:14:46 11 17.00 0.055000 41.649648 41.62752893 0 0 0 0 0 0 0 0 STD5.60
2025-12-15 08:09:44 13 18.00 0.065000 41.649648 41.62752893 0 0 0 0 0 0 0 0 STD5.60
2025-12-15 08:04:41 10 17.40 0.050000 41.649648 41.62752893 0 0 0 0 0 0 0 0 STD5.60
2025-12-15 07:59:40 13 18.60 0.065000 41.649648 41.62752893 0 0 0 0 0 0 0 0 STD5.60
2025-12-15 07:54:37 22 18.90 0.110000 41.649648 41.62752893 0 0 0 0 0 0 0 0 STD5.60
2025-12-15 07:49:35 19 16.70 0.095000 41.649648 41.62752893 0 0 0 0 0 0 0 0 STD5.60
2025-12-15 07:44:33 19 15.90 0.095000 41.649648 41.62752893 0 0 0 0 0 0 0 0 STD5.60
2025-12-15 07:39:31 17 15.70 0.085000 41.649648 41.62752893 0 0 0 0 0 0 0 0 STD5.60
2025-12-15 07:34:29 21 17.70 0.105000 41.649648 41.62752893 0 0 0 0 0 0 0 0 STD5.60
2025-12-15 07:29:26 14 19.50 0.070000 41.649648 41.62752893 0 0 0 0 0 0 0 0 STD5.60
2025-12-15 07:24:25 23 18.90 0.115000 41.649648 41.62752893 0 0 0 0 0 0 0 0 STD5.60
2025-12-15 07:19:21 21 15.50 0.105000 41.649648 41.62752893 0 0 0 0 0 0 0 0 STD5.60
2025-12-15 07:14:18 11 15.40 0.055000 41.649648 41.62752893 0 0 0 0 0 0 0 0 STD5.60
2025-12-15 07:09:16 31 18.00 0.155000 41.649648 41.62752893 0 0 0 0 0 0 0 0 STD5.60
2025-12-15 07:04:14 17 17.00 0.085000 41.649648 41.62752893 0 0 0 0 0 0 0 0 STD5.60
2025-12-15 06:59:12 13 16.00 0.065000 41.649648 41.62752893 0 0 0 0 0 0 0 0 STD5.60
2025-12-15 06:54:09 8 16.80 0.040000 41.649648 41.62752893 0 0 0 0 0 0 0 0 STD5.60
2025-12-15 06:49:07 16 18.10 0.080000 41.649648 41.62752893 0 0 0 0 0 0 0 0 STD5.60
2025-12-15 06:44:05 27 18.70 0.135000 41.649648 41.62752893 0 0 0 0 0 0 0 0 STD5.60
2025-12-15 06:39:03 24 17.80 0.120000 41.649648 41.62752893 0 0 0 0 0 0 0 0 STD5.60
2025-12-15 06:34:00 14 16.50 0.070000 41.649648 41.62752893 0 0 0 0 0 0 0 0 STD5.60
2025-12-15 06:28:58 15 16.10 0.075000 41.649648 41.62752893 0 0 0 0 0 0 0 0 STD5.60
2025-12-15 06:23:56 23 17.30 0.115000 41.649648 41.62752893 0 0 0 0 0 0 0 0 STD5.60
2025-12-15 06:18:51 23 17.10 0.115000 41.649648 41.62752893 0 0 0 0 0 0 0 0 STD5.60
2025-12-15 06:13:48 19 17.00 0.095000 41.649648 41.62752893 0 0 0 0 0 0 0 0 STD5.60
2025-12-15 06:08:46 18 17.20 0.090000 41.649648 41.62752893 0 0 0 0 0 0 0 0 STD5.60
2025-12-15 06:03:44 17 16.00 0.085000 41.649648 41.62752893 0 0 0 0 0 0 0 0 STD5.60
2025-12-15 05:58:42 19 16.00 0.095000 41.649648 41.62752893 0 0 0 0 0 0 0 0 STD5.60
2025-12-15 05:53:40 8 17.20 0.040000 41.649648 41.62752893 0 0 0 0 0 0 0 0 STD5.60
2025-12-15 05:48:37 15 16.40 0.075000 41.649648 41.62752893 0 0 0 0 0 0 0 0 STD5.60
2025-12-15 05:43:35 16 15.50 0.080000 41.649648 41.62752893 0 0 0 0 0 0 0 0 STD5.60
2025-12-15 05:38:33 17 15.90 0.085000 41.649648 41.62752893 0 0 0 0 0 0 0 0 STD5.60
2025-12-15 05:33:31 15 16.20 0.075000 41.649648 41.62752893 0 0 0 0 0 0 0 0 STD5.60
2025-12-15 05:28:29 19 17.00 0.095000 41.649648 41.62752893 0 0 0 0 0 0 0 0 STD5.60
2025-12-15 05:23:26 17 18.50 0.085000 41.649648 41.62752893 0 0 0 0 0 0 0 0 STD5.60
2025-12-15 05:18:21 18 18.30 0.090000 41.649648 41.62752893 0 0 0 0 0 0 0 0 STD5.60
2025-12-15 05:13:19 19 17.90 0.095000 41.649648 41.62752893 0 0 0 0 0 0 0 0 STD5.60
2025-12-15 05:08:17 11 17.80 0.055000 41.649648 41.62752893 0 0 0 0 0 0 0 0 STD5.60
2025-12-15 05:03:15 14 18.00 0.070000 41.649648 41.62752893 0 0 0 0 0 0 0 0 STD5.60
2025-12-15 04:58:12 18 19.30 0.090000 41.649648 41.62752893 0 0 0 0 0 0 0 0 STD5.60
2025-12-15 04:53:10 20 19.00 0.100000 41.649648 41.62752893 0 0 0 0 0 0 0 0 STD5.60
2025-12-15 04:48:08 10 19.00 0.050000 41.649648 41.62752893 0 0 0 0 0 0 0 0 STD5.60
2025-12-15 04:43:06 18 18.50 0.090000 41.649648 41.62752893 0 0 0 0 0 0 0 0 STD5.60
2025-12-15 04:38:04 14 17.80 0.070000 41.649648 41.62752893 0 0 0 0 0 0 0 0 STD5.60
2025-12-15 04:33:01 18 17.90 0.090000 41.649648 41.62752893 0 0 0 0 0 0 0 0 STD5.60
2025-12-15 04:27:59 18 16.00 0.090000 41.649648 41.62752893 0 0 0 0 0 0 0 0 STD5.60
2025-12-15 04:22:57 14 16.00 0.070000 41.649648 41.62752893 0 0 0 0 0 0 0 0 STD5.60
2025-12-15 04:17:54 16 17.70 0.080000 41.649648 41.62752893 0 0 0 0 0 0 0 0 STD5.60
2025-12-15 04:12:51 18 17.20 0.090000 41.649648 41.62752893 0 0 0 0 0 0 0 0 STD5.60
2025-12-15 04:07:48 13 17.10 0.065000 41.649648 41.62752893 0 0 0 0 0 0 0 0 STD5.60
2025-12-15 04:02:46 19 18.70 0.095000 41.649648 41.62752893 0 0 0 0 0 0 0 0 STD5.60
2025-12-15 03:57:44 25 19.20 0.125000 41.649648 41.62752893 0 0 0 0 0 0 0 0 STD5.60
2025-12-15 03:52:42 13 19.60 0.065000 41.649648 41.62752893 0 0 0 0 0 0 0 0 STD5.60
2025-12-15 03:47:40 14 20.10 0.070000 41.649648 41.62752893 0 0 0 0 0 0 0 0 STD5.60
2025-12-15 03:42:38 26 18.90 0.130000 41.649648 41.62752893 0 0 0 0 0 0 0 0 STD5.60
2025-12-15 03:37:35 9 17.90 0.045000 41.649648 41.62752893 0 0 0 0 0 0 0 0 STD5.60
2025-12-15 03:32:33 20 18.60 0.100000 41.649648 41.62752893 0 0 0 0 0 0 0 0 STD5.60
2025-12-15 03:27:31 15 17.20 0.075000 41.649648 41.62752893 0 0 0 0 0 0 0 0 STD5.60
2025-12-15 03:22:29 14 17.00 0.070000 41.649648 41.62752893 0 0 0 0 0 0 0 0 STD5.60
2025-12-15 03:17:25 21 17.40 0.105000 41.649648 41.62752893 0 0 0 0 0 0 0 0 STD5.60
2025-12-15 03:12:23 19 18.20 0.095000 41.649648 41.62752893 0 0 0 0 0 0 0 0 STD5.60
2025-12-15 03:07:20 27 19.00 0.135000 41.649648 41.62752893 0 0 0 0 0 0 0 0 STD5.60
2025-12-15 03:02:18 15 17.80 0.075000 41.649648 41.62752893 0 0 0 0 0 0 0 0 STD5.60
2025-12-15 02:57:16 19 17.40 0.095000 41.649648 41.62752893 0 0 0 0 0 0 0 0 STD5.60
2025-12-15 02:52:14 19 17.70 0.095000 41.649648 41.62752893 0 0 0 0 0 0 0 0 STD5.60
2025-12-15 02:47:11 16 16.10 0.080000 41.649648 41.62752893 0 0 0 0 0 0 0 0 STD5.60
2025-12-15 02:42:10 18 16.10 0.090000 41.649648 41.62752893 0 0 0 0 0 0 0 0 STD5.60
2025-12-15 02:37:08 16 17.10 0.080000 41.649648 41.62752893 0 0 0 0 0 0 0 0 STD5.60
2025-12-15 02:32:05 16 15.90 0.080000 41.649648 41.62752893 0 0 0 0 0 0 0 0 STD5.60
2025-12-15 02:27:03 18 17.00 0.090000 41.649648 41.62752893 0 0 0 0 0 0 0 0 STD5.60
2025-12-15 02:21:59 18 17.80 0.090000 41.649648 41.62752893 0 0 0 0 0 0 0 0 STD5.60
2025-12-15 02:16:57 9 18.00 0.045000 41.649648 41.62752893 0 0 0 0 0 0 0 0 STD5.60
2025-12-15 02:11:55 24 18.70 0.120000 41.649648 41.62752893 0 0 0 0 0 0 0 0 STD5.60
2025-12-15 02:06:53 19 17.00 0.095000 41.649648 41.62752893 0 0 0 0 0 0 0 0 STD5.60
2025-12-15 02:01:50 9 17.50 0.045000 41.649648 41.62752893 0 0 0 0 0 0 0 0 STD5.60
2025-12-15 01:56:48 18 19.50 0.090000 41.649648 41.62752893 0 0 0 0 0 0 0 0 STD5.60
2025-12-15 01:51:46 20 18.80 0.100000 41.649648 41.62752893 0 0 0 0 0 0 0 0 STD5.60
2025-12-15 01:46:44 23 16.20 0.115000 41.649648 41.62752893 0 0 0 0 0 0 0 0 STD5.60
2025-12-15 01:41:42 14 15.70 0.070000 41.649648 41.62752893 0 0 0 0 0 0 0 0 STD5.60
2025-12-15 01:36:39 16 17.10 0.080000 41.649648 41.62752893 0 0 0 0 0 0 0 0 STD5.60
2025-12-15 01:31:37 16 16.70 0.080000 41.649648 41.62752893 0 0 0 0 0 0 0 0 STD5.60
2025-12-15 01:26:35 16 18.10 0.080000 41.649648 41.62752893 0 0 0 0 0 0 0 0 STD5.60
2025-12-15 01:21:31 18 19.00 0.090000 41.649648 41.62752893 0 0 0 0 0 0 0 0 STD5.60
2025-12-15 01:16:29 15 17.30 0.075000 41.649648 41.62752893 0 0 0 0 0 0 0 0 STD5.60
2025-12-15 01:11:27 21 17.40 0.105000 41.649648 41.62752893 0 0 0 0 0 0 0 0 STD5.60
2025-12-15 01:06:25 23 17.00 0.115000 41.649648 41.62752893 0 0 0 0 0 0 0 0 STD5.60
2025-12-15 01:01:23 18 17.90 0.090000 41.649648 41.62752893 0 0 0 0 0 0 0 0 STD5.60
2025-12-15 00:56:20 25 19.30 0.125000 41.649648 41.62752893 0 0 0 0 0 0 0 0 STD5.60
2025-12-15 00:51:19 21 18.10 0.105000 41.649648 41.62752893 0 0 0 0 0 0 0 0 STD5.60
2025-12-15 00:46:17 21 17.30 0.105000 41.649648 41.62752893 0 0 0 0 0 0 0 0 STD5.60
2025-12-15 00:41:15 20 16.50 0.100000 41.649648 41.62752893 0 0 0 0 0 0 0 0 STD5.60
2025-12-15 00:36:12 21 18.40 0.105000 41.649648 41.62752893 0 0 0 0 0 0 0 0 STD5.60
2025-12-15 00:31:10 18 19.90 0.090000 41.649648 41.62752893 0 0 0 0 0 0 0 0 STD5.60
2025-12-15 00:26:08 19 17.60 0.095000 41.649648 41.62752893 0 0 0 0 0 0 0 0 STD5.60
2025-12-15 00:21:04 13 18.70 0.065000 41.649648 41.62752893 0 0 0 0 0 0 0 0 STD5.60
2025-12-15 00:16:02 22 19.10 0.110000 41.649648 41.62752893 0 0 0 0 0 0 0 0 STD5.60
2025-12-15 00:10:59 19 18.00 0.095000 41.649648 41.62752893 0 0 0 0 0 0 0 0 STD5.60
2025-12-15 00:05:58 18 17.00 0.090000 41.649648 41.62752893 0 0 0 0 0 0 0 0 STD5.60
2025-12-15 00:00:55 13 17.10 0.065000 41.649648 41.62752893 0 0 0 0 0 0 0 0 STD5.60
2025-12-14 23:55:53 16 17.20 0.080000 41.649648 41.62752893 0 0 0 0 0 0 0 0 STD5.60
2025-12-14 23:50:51 13 17.10 0.065000 41.649648 41.62752893 0 0 0 0 0 0 0 0 STD5.60
2025-12-14 23:45:49 22 18.50 0.110000 41.649648 41.62752893 0 0 0 0 0 0 0 0 STD5.60
2025-12-14 23:40:47 13 16.70 0.065000 41.649648 41.62752893 0 0 0 0 0 0 0 0 STD5.60
2025-12-14 23:35:44 20 16.10 0.100000 41.649648 41.62752893 0 0 0 0 0 0 0 0 STD5.60
2025-12-14 23:30:42 19 15.40 0.095000 41.649648 41.62752893 0 0 0 0 0 0 0 0 STD5.60
2025-12-14 23:25:40 17 17.00 0.085000 41.649648 41.62752893 0 0 0 0 0 0 0 0 STD5.60
2025-12-14 23:20:36 13 21.40 0.065000 41.649648 41.62752893 0 0 0 0 0 0 0 0 STD5.60
2025-12-14 23:15:34 24 19.20 0.120000 41.649648 41.62752893 0 0 0 0 0 0 0 0 STD5.60
2025-12-14 23:10:32 12 16.80 0.060000 41.649648 41.62752893 0 0 0 0 0 0 0 0 STD5.60
2025-12-14 23:05:29 22 18.20 0.110000 41.649648 41.62752893 0 0 0 0 0 0 0 0 STD5.60
2025-12-14 23:00:27 18 16.60 0.090000 41.649648 41.62752893 0 0 0 0 0 0 0 0 STD5.60
2025-12-14 22:55:25 18 17.00 0.090000 41.649648 41.62752893 0 0 0 0 0 0 0 0 STD5.60
2025-12-14 22:50:23 14 20.20 0.070000 41.649648 41.62752893 0 0 0 0 0 0 0 0 STD5.60
2025-12-14 22:45:21 23 19.40 0.115000 41.649648 41.62752893 0 0 0 0 0 0 0 0 STD5.60
2025-12-14 22:40:19 12 16.90 0.060000 41.649648 41.62752893 0 0 0 0 0 0 0 0 STD5.60
2025-12-14 22:35:16 11 19.50 0.055000 41.649648 41.62752893 0 0 0 0 0 0 0 0 STD5.60
2025-12-14 22:30:14 22 21.40 0.110000 41.649648 41.62752893 0 0 0 0 0 0 0 0 STD5.60
2025-12-14 22:25:12 21 19.90 0.105000 41.649648 41.62752893 0 0 0 0 0 0 0 0 STD5.60
2025-12-14 22:19:53 26 17.50 0.130000 41.649648 41.62752893 0 0 0 0 0 0 0 0 STD5.60
2025-12-14 22:14:51 22 16.10 0.110000 41.649648 41.62752893 0 0 0 0 0 0 0 0 STD5.60
2025-12-14 22:09:48 24 15.60 0.120000 41.649648 41.62752893 0 0 0 0 0 0 0 0 STD5.60
2025-12-14 22:04:46 17 17.40 0.085000 41.649648 41.62752893 0 0 0 0 0 0 0 0 STD5.60
2025-12-14 21:59:43 20 19.00 0.100000 41.649648 41.62752893 0 0 0 0 0 0 0 0 STD5.60
2025-12-14 21:54:41 18 17.10 0.090000 41.649648 41.62752893 0 0 0 0 0 0 0 0 STD5.60
2025-12-14 21:49:39 15 17.60 0.075000 41.649648 41.62752893 0 0 0 0 0 0 0 0 STD5.60
2025-12-14 21:44:38 18 17.40 0.090000 41.649648 41.62752893 0 0 0 0 0 0 0 0 STD5.60
2025-12-14 21:39:35 13 16.70 0.065000 41.649648 41.62752893 0 0 0 0 0 0 0 0 STD5.60
2025-12-14 21:34:33 15 17.30 0.075000 41.649648 41.62752893 0 0 0 0 0 0 0 0 STD5.60
2025-12-14 21:29:31 11 17.90 0.055000 41.649648 41.62752893 0 0 0 0 0 0 0 0 STD5.60
2025-12-14 21:24:28 19 18.80 0.095000 41.649648 41.62752893 0 0 0 0 0 0 0 0 STD5.60
2025-12-14 21:19:24 27 18.70 0.135000 41.649648 41.62752893 0 0 0 0 0 0 0 0 STD5.60
2025-12-14 21:14:21 19 18.20 0.095000 41.649648 41.62752893 0 0 0 0 0 0 0 0 STD5.60
2025-12-14 21:09:19 18 17.40 0.090000 41.649648 41.62752893 0 0 0 0 0 0 0 0 STD5.60
2025-12-14 21:04:17 21 19.40 0.105000 41.649648 41.62752893 0 0 0 0 0 0 0 0 STD5.60
2025-12-14 20:59:15 24 19.60 0.120000 41.649648 41.62752893 0 0 0 0 0 0 0 0 STD5.60
2025-12-14 20:54:12 16 15.30 0.080000 41.649648 41.62752893 0 0 0 0 0 0 0 0 STD5.60
2025-12-14 20:49:10 11 16.40 0.055000 41.649648 41.62752893 0 0 0 0 0 0 0 0 STD5.60
2025-12-14 20:44:08 13 19.60 0.065000 41.649648 41.62752893 0 0 0 0 0 0 0 0 STD5.60
2025-12-14 20:39:06 18 17.80 0.090000 41.649648 41.62752893 0 0 0 0 0 0 0 0 STD5.60
2025-12-14 20:34:04 17 16.30 0.085000 41.649648 41.62752893 0 0 0 0 0 0 0 0 STD5.60
2025-12-14 20:29:02 18 17.40 0.090000 41.649648 41.62752893 0 0 0 0 0 0 0 0 STD5.60
2025-12-14 20:23:59 21 18.10 0.105000 41.649648 41.62752893 0 0 0 0 0 0 0 0 STD5.60
2025-12-14 20:18:56 17 18.90 0.085000 41.649648 41.62752893 0 0 0 0 0 0 0 0 STD5.60
2025-12-14 20:13:52 19 18.20 0.095000 41.649648 41.62752893 0 0 0 0 0 0 0 0 STD5.60
2025-12-14 20:08:50 16 17.60 0.080000 41.649648 41.62752893 0 0 0 0 0 0 0 0 STD5.60
2025-12-14 20:03:48 12 17.20 0.060000 41.649648 41.62752893 0 0 0 0 0 0 0 0 STD5.60
2025-12-14 19:58:45 16 15.70 0.080000 41.649648 41.62752893 0 0 0 0 0 0 0 0 STD5.60
2025-12-14 19:53:43 19 17.50 0.095000 41.649648 41.62752893 0 0 0 0 0 0 0 0 STD5.60
2025-12-14 19:48:41 11 18.60 0.055000 41.649648 41.62752893 0 0 0 0 0 0 0 0 STD5.60
2025-12-14 19:43:39 18 16.80 0.090000 41.649648 41.62752893 0 0 0 0 0 0 0 0 STD5.60
2025-12-14 19:38:37 11 16.30 0.055000 41.649648 41.62752893 0 0 0 0 0 0 0 0 STD5.60
2025-12-14 19:33:34 20 17.00 0.100000 41.649648 41.62752893 0 0 0 0 0 0 0 0 STD5.60
2025-12-14 19:28:32 18 16.80 0.090000 41.649648 41.62752893 0 0 0 0 0 0 0 0 STD5.60
2025-12-14 19:23:30 12 19.60 0.060000 41.649648 41.62752893 0 0 0 0 0 0 0 0 STD5.60
2025-12-14 19:18:26 15 19.00 0.075000 41.649648 41.62752893 0 0 0 0 0 0 0 0 STD5.60
2025-12-14 19:13:24 12 17.60 0.060000 41.649648 41.62752893 0 0 0 0 0 0 0 0 STD5.60
2025-12-14 19:08:25 16 17.70 0.080000 41.649648 41.62752893 0 0 0 0 0 0 0 0 STD5.60
2025-12-14 19:03:19 23 16.50 0.115000 41.649648 41.62752893 0 0 0 0 0 0 0 0 STD5.60
2025-12-14 18:58:17 11 17.30 0.055000 41.649648 41.62752893 0 0 0 0 0 0 0 0 STD5.60
2025-12-14 18:53:15 12 17.30 0.060000 41.649648 41.62752893 0 0 0 0 0 0 0 0 STD5.60
2025-12-14 18:48:13 12 16.00 0.060000 41.649648 41.62752893 0 0 0 0 0 0 0 0 STD5.60
2025-12-14 18:43:11 16 16.70 0.080000 41.649648 41.62752893 0 0 0 0 0 0 0 0 STD5.60
2025-12-14 18:38:09 14 16.10 0.070000 41.649648 41.62752893 0 0 0 0 0 0 0 0 STD5.60
2025-12-14 18:33:06 13 14.90 0.065000 41.649648 41.62752893 0 0 0 0 0 0 0 0 STD5.60
2025-12-14 18:28:04 22 16.00 0.110000 41.649648 41.62752893 0 0 0 0 0 0 0 0 STD5.60
2025-12-14 18:23:01 14 18.80 0.070000 41.649648 41.62752893 0 0 0 0 0 0 0 0 STD5.60
2025-12-14 18:17:57 29 20.80 0.145000 41.649648 41.62752893 0 0 0 0 0 0 0 0 STD5.60
2025-12-14 18:12:55 24 18.60 0.120000 41.649648 41.62752893 0 0 0 0 0 0 0 0 STD5.60
2025-12-14 18:07:53 17 17.50 0.085000 41.649648 41.62752893 0 0 0 0 0 0 0 0 STD5.60
2025-12-14 18:02:51 16 17.80 0.080000 41.649648 41.62752893 0 0 0 0 0 0 0 0 STD5.60
2025-12-14 17:57:48 20 17.30 0.100000 41.649648 41.62752893 0 0 0 0 0 0 0 0 STD5.60
2025-12-14 17:52:46 10 18.30 0.050000 41.649648 41.62752893 0 0 0 0 0 0 0 0 STD5.60
2025-12-14 17:47:44 27 18.70 0.135000 41.649648 41.62752893 0 0 0 0 0 0 0 0 STD5.60
2025-12-14 17:42:43 14 16.20 0.070000 41.649648 41.62752893 0 0 0 0 0 0 0 0 STD5.60
2025-12-14 17:37:40 23 16.60 0.115000 41.649648 41.62752893 0 0 0 0 0 0 0 0 STD5.60
2025-12-14 17:32:38 23 18.50 0.115000 41.649648 41.62752893 0 0 0 0 0 0 0 0 STD5.60
2025-12-14 17:27:35 24 19.10 0.120000 41.649648 41.62752893 0 0 0 0 0 0 0 0 STD5.60
2025-12-14 17:22:33 18 17.60 0.090000 41.649648 41.62752893 0 0 0 0 0 0 0 0 STD5.60
2025-12-14 17:17:29 20 16.80 0.100000 41.649648 41.62752893 0 0 0 0 0 0 0 0 STD5.60
2025-12-14 17:12:27 23 17.80 0.115000 41.649648 41.62752893 0 0 0 0 0 0 0 0 STD5.60
2025-12-14 17:07:25 24 20.90 0.120000 41.649648 41.62752893 0 0 0 0 0 0 0 0 STD5.60
2025-12-14 17:02:23 20 19.40 0.100000 41.649648 41.62752893 0 0 0 0 0 0 0 0 STD5.60
2025-12-14 16:57:24 20 15.80 0.100000 41.649648 41.62752893 0 0 0 0 0 0 0 0 STD5.60
2025-12-14 16:52:19 19 13.90 0.095000 41.649648 41.62752893 0 0 0 0 0 0 0 0 STD5.60
2025-12-14 16:47:17 15 15.90 0.075000 41.649648 41.62752893 0 0 0 0 0 0 0 0 STD5.60
2025-12-14 16:42:15 17 18.90 0.085000 41.649648 41.62752893 0 0 0 0 0 0 0 0 STD5.60
2025-12-14 16:37:12 20 19.60 0.100000 41.649648 41.62752893 0 0 0 0 0 0 0 0 STD5.60
2025-12-14 16:32:11 18 19.00 0.090000 41.649648 41.62752893 0 0 0 0 0 0 0 0 STD5.60
2025-12-14 16:27:08 11 16.40 0.055000 41.649648 41.62752893 0 0 0 0 0 0 0 0 STD5.60
2025-12-14 16:22:06 14 16.60 0.070000 41.649648 41.62752893 0 0 0 0 0 0 0 0 STD5.60
2025-12-14 16:17:03 20 18.70 0.100000 41.649648 41.62752893 0 0 0 0 0 0 0 0 STD5.60
2025-12-14 16:12:00 16 17.00 0.080000 41.649648 41.62752893 0 0 0 0 0 0 0 0 STD5.60
2025-12-14 16:06:58 11 15.30 0.055000 41.649648 41.62752893 0 0 0 0 0 0 0 0 STD5.60
2025-12-14 16:01:56 17 16.90 0.085000 41.649648 41.62752893 0 0 0 0 0 0 0 0 STD5.60
2025-12-14 15:56:54 20 16.30 0.100000 41.649648 41.62752893 0 0 0 0 0 0 0 0 STD5.60
2025-12-14 15:51:51 13 16.50 0.065000 41.649648 41.62752893 0 0 0 0 0 0 0 0 STD5.60
2025-12-14 15:46:49 21 18.60 0.105000 41.649648 41.62752893 0 0 0 0 0 0 0 0 STD5.60
2025-12-14 15:41:47 16 19.80 0.080000 41.649648 41.62752893 0 0 0 0 0 0 0 0 STD5.60
2025-12-14 15:36:45 15 19.20 0.075000 41.649648 41.62752893 0 0 0 0 0 0 0 0 STD5.60
2025-12-14 15:31:42 20 19.80 0.100000 41.649648 41.62752893 0 0 0 0 0 0 0 0 STD5.60
2025-12-14 15:26:40 24 18.90 0.120000 41.649648 41.62752893 0 0 0 0 0 0 0 0 STD5.60
2025-12-14 15:21:37 15 18.00 0.075000 41.649648 41.62752893 0 0 0 0 0 0 0 0 STD5.60
2025-12-14 15:16:34 16 18.80 0.080000 41.649648 41.62752893 0 0 0 0 0 0 0 0 STD5.60
2025-12-14 15:11:31 16 18.60 0.080000 41.649648 41.62752893 0 0 0 0 0 0 0 0 STD5.60
2025-12-14 15:06:31 22 18.50 0.110000 41.649648 41.62752893 0 0 0 0 0 0 0 0 STD5.60
2025-12-14 15:01:27 22 18.80 0.110000 41.649648 41.62752893 0 0 0 0 0 0 0 0 STD5.60
2025-12-14 14:56:25 21 20.00 0.105000 41.649648 41.62752893 0 0 0 0 0 0 0 0 STD5.60
2025-12-14 14:51:23 18 18.40 0.090000 41.649648 41.62752893 0 0 0 0 0 0 0 0 STD5.60
2025-12-14 14:46:20 17 16.30 0.085000 41.649648 41.62752893 0 0 0 0 0 0 0 0 STD5.60
2025-12-14 14:41:18 16 16.50 0.080000 41.649648 41.62752893 0 0 0 0 0 0 0 0 STD5.60
2025-12-14 14:36:16 21 17.60 0.105000 41.649648 41.62752893 0 0 0 0 0 0 0 0 STD5.60
2025-12-14 14:31:15 21 18.40 0.105000 41.649648 41.62752893 0 0 0 0 0 0 0 0 STD5.60
2025-12-14 14:26:12 19 18.00 0.095000 41.649648 41.62752893 0 0 0 0 0 0 0 0 STD5.60
2025-12-14 14:21:10 28 19.40 0.140000 41.649648 41.62752893 0 0 0 0 0 0 0 0 STD5.60
2025-12-14 14:16:06 20 18.50 0.100000 41.649648 41.62752893 0 0 0 0 0 0 0 0 STD5.60
2025-12-14 14:11:04 12 18.10 0.060000 41.649648 41.62752893 0 0 0 0 0 0 0 0 STD5.60
2025-12-14 14:06:01 19 19.70 0.095000 41.649648 41.62752893 0 0 0 0 0 0 0 0 STD5.60
2025-12-14 14:00:59 18 19.40 0.090000 41.649648 41.62752893 0 0 0 0 0 0 0 0 STD5.60
2025-12-14 13:55:57 18 19.20 0.090000 41.649648 41.62752893 0 0 0 0 0 0 0 0 STD5.60
2025-12-14 13:50:55 15 19.10 0.075000 41.649648 41.62752893 0 0 0 0 0 0 0 0 STD5.60
2025-12-14 13:45:53 13 18.00 0.065000 41.649648 41.62752893 0 0 0 0 0 0 0 0 STD5.60
2025-12-14 13:40:51 19 17.80 0.095000 41.649648 41.62752893 0 0 0 0 0 0 0 0 STD5.60
2025-12-14 13:35:48 14 18.80 0.070000 41.649648 41.62752893 0 0 0 0 0 0 0 0 STD5.60
2025-12-14 13:30:46 14 17.40 0.070000 41.649648 41.62752893 0 0 0 0 0 0 0 0 STD5.60
2025-12-14 13:25:44 20 18.10 0.100000 41.649648 41.62752893 0 0 0 0 0 0 0 0 STD5.60
2025-12-14 13:20:42 21 20.20 0.105000 41.649648 41.62752893 0 0 0 0 0 0 0 0 STD5.60
2025-12-14 13:15:37 18 19.20 0.090000 41.649648 41.62752893 0 0 0 0 0 0 0 0 STD5.60
2025-12-14 13:10:34 18 18.50 0.090000 41.649648 41.62752893 0 0 0 0 0 0 0 0 STD5.60
2025-12-14 13:05:32 19 18.60 0.095000 41.649648 41.62752893 0 0 0 0 0 0 0 0 STD5.60
2025-12-14 13:00:30 15 16.20 0.075000 41.649648 41.62752893 0 0 0 0 0 0 0 0 STD5.60
2025-12-14 12:55:28 11 16.70 0.055000 41.649648 41.62752893 0 0 0 0 0 0 0 0 STD5.60
2025-12-14 12:50:26 14 18.60 0.070000 41.649648 41.62752893 0 0 0 0 0 0 0 0 STD5.60
2025-12-14 12:45:24 13 17.80 0.065000 41.649648 41.62752893 0 0 0 0 0 0 0 0 STD5.60
2025-12-14 12:40:22 21 18.50 0.105000 41.649648 41.62752893 0 0 0 0 0 0 0 0 STD5.60
2025-12-14 12:35:20 22 20.70 0.110000 41.649648 41.62752893 0 0 0 0 0 0 0 0 STD5.60
2025-12-14 12:30:17 19 19.90 0.095000 41.649648 41.62752893 0 0 0 0 0 0 0 0 STD5.60
2025-12-14 12:25:15 17 13.30 0.085000 41.649648 41.62752893 0 0 0 0 0 0 0 0 STD5.60
2025-12-14 12:20:13 24 4.10 0.120000 41.649648 41.62752893 0 0 0 0 0 0 0 0 STD5.60
2025-12-14 12:15:07 13 18.00 0.065000 41.649648 41.62752893 0 0 0 0 0 0 0 0 STD5.60
2025-12-14 12:10:05 14 17.20 0.070000 41.649648 41.62752893 0 0 0 0 0 0 0 0 STD5.60
2025-12-14 12:05:04 11 18.40 0.055000 41.649648 41.62752893 0 0 0 0 0 0 0 0 STD5.60
2025-12-14 12:00:02 21 18.80 0.105000 41.649648 41.62752893 0 0 0 0 0 0 0 0 STD5.60
2025-12-14 11:54:59 18 16.40 0.090000 41.649648 41.62752893 0 0 0 0 0 0 0 0 STD5.60
2025-12-14 11:49:57 17 16.30 0.085000 41.649648 41.62752893 0 0 0 0 0 0 0 0 STD5.60
2025-12-14 11:44:54 15 16.20 0.075000 41.649648 41.62752893 0 0 0 0 0 0 0 0 STD5.60
2025-12-14 11:39:52 16 17.00 0.080000 41.649648 41.62752893 0 0 0 0 0 0 0 0 STD5.60
2025-12-14 11:34:50 24 18.60 0.120000 41.649648 41.62752893 0 0 0 0 0 0 0 0 STD5.60
2025-12-14 11:29:48 13 20.40 0.065000 41.649648 41.62752893 0 0 0 0 0 0 0 0 STD5.60
2025-12-14 11:24:46 28 20.20 0.140000 41.649648 41.62752893 0 0 0 0 0 0 0 0 STD5.60
2025-12-14 11:19:43 19 17.70 0.095000 41.649648 41.62752893 0 0 0 0 0 0 0 0 STD5.60
2025-12-14 11:14:39 14 16.40 0.070000 41.649648 41.62752893 0 0 0 0 0 0 0 0 STD5.60
2025-12-14 11:09:37 9 15.70 0.045000 41.649648 41.62752893 0 0 0 0 0 0 0 0 STD5.60
2025-12-14 11:04:35 12 16.40 0.060000 41.649648 41.62752893 0 0 0 0 0 0 0 0 STD5.60
2025-12-14 10:59:33 18 17.90 0.090000 41.649648 41.62752893 0 0 0 0 0 0 0 0 STD5.60
2025-12-14 10:54:30 19 17.70 0.095000 41.649648 41.62752893 0 0 0 0 0 0 0 0 STD5.60
2025-12-14 10:49:28 23 20.10 0.115000 41.649648 41.62752893 0 0 0 0 0 0 0 0 STD5.60
2025-12-14 10:44:26 31 18.50 0.155000 41.649648 41.62752893 0 0 0 0 0 0 0 0 STD5.60
2025-12-14 10:39:24 16 15.90 0.080000 41.649648 41.62752893 0 0 0 0 0 0 0 0 STD5.60
2025-12-14 10:34:21 20 16.70 0.100000 41.649648 41.62752893 0 0 0 0 0 0 0 0 STD5.60
2025-12-14 10:29:20 9 19.70 0.045000 41.649648 41.62752893 0 0 0 0 0 0 0 0 STD5.60
2025-12-14 10:24:17 31 20.30 0.155000 41.649648 41.62752893 0 0 0 0 0 0 0 0 STD5.60
2025-12-14 10:19:15 11 17.90 0.055000 41.649648 41.62752893 0 0 0 0 0 0 0 0 STD5.60
2025-12-14 10:14:11 17 18.00 0.085000 41.649648 41.62752893 0 0 0 0 0 0 0 0 STD5.60
2025-12-14 10:09:08 22 16.10 0.110000 41.649648 41.62752893 0 0 0 0 0 0 0 0 STD5.60
2025-12-14 10:04:07 15 14.60 0.075000 41.649648 41.62752893 0 0 0 0 0 0 0 0 STD5.60
2025-12-14 09:59:04 12 17.90 0.060000 41.649648 41.62752893 0 0 0 0 0 0 0 0 STD5.60
2025-12-14 09:54:02 24 21.60 0.120000 41.649648 41.62752893 0 0 0 0 0 0 0 0 STD5.60
2025-12-14 09:49:00 29 18.60 0.145000 41.649648 41.62752893 0 0 0 0 0 0 0 0 STD5.60
2025-12-14 09:43:58 19 15.70 0.095000 41.649648 41.62752893 0 0 0 0 0 0 0 0 STD5.60
2025-12-14 09:38:56 15 16.60 0.075000 41.649648 41.62752893 0 0 0 0 0 0 0 0 STD5.60
2025-12-14 09:33:54 18 16.60 0.090000 41.649648 41.62752893 0 0 0 0 0 0 0 0 STD5.60
2025-12-14 09:28:52 15 16.60 0.075000 41.649648 41.62752893 0 0 0 0 0 0 0 0 STD5.60
2025-12-14 09:23:50 23 16.70 0.115000 41.649648 41.62752893 0 0 0 0 0 0 0 0 STD5.60
2025-12-14 09:18:48 24 17.00 0.120000 41.649648 41.62752893 0 0 0 0 0 0 0 0 STD5.60
2025-12-14 09:13:44 23 16.80 0.115000 41.649648 41.62752893 0 0 0 0 0 0 0 0 STD5.60
2025-12-14 09:08:41 15 16.80 0.075000 41.649648 41.62752893 0 0 0 0 0 0 0 0 STD5.60
2025-12-14 09:03:40 21 20.10 0.105000 41.649648 41.62752893 0 0 0 0 0 0 0 0 STD5.60
2025-12-14 08:58:37 24 20.80 0.120000 41.649648 41.62752893 0 0 0 0 0 0 0 0 STD5.60
2025-12-14 08:53:35 23 16.30 0.115000 41.649648 41.62752893 0 0 0 0 0 0 0 0 STD5.60
2025-12-14 08:48:33 17 14.60 0.085000 41.649648 41.62752893 0 0 0 0 0 0 0 0 STD5.60
Geiger Counter World Map       A real time radiation map.     Copyright 2015 All rights reserved.